createdAt,value
2022-11-22T00:00:37.290Z,14.82
2022-11-22T00:03:04.015Z,13.02
2022-11-22T00:05:30.759Z,13.73
2022-11-22T00:07:57.353Z,14.00
2022-11-22T00:10:24.370Z,13.98
2022-11-22T00:12:51.157Z,14.20
2022-11-22T00:15:18.881Z,13.38
2022-11-22T00:17:45.459Z,13.38
2022-11-22T00:20:12.910Z,12.63
2022-11-22T00:22:44.271Z,13.57
2022-11-22T00:25:11.925Z,12.93
2022-11-22T00:27:38.702Z,13.70
2022-11-22T00:30:06.185Z,12.38
2022-11-22T00:32:32.761Z,13.77
2022-11-22T00:34:59.634Z,15.60
2022-11-22T00:37:26.232Z,13.00
2022-11-22T00:39:52.827Z,13.50
2022-11-22T00:42:19.552Z,13.95
2022-11-22T00:44:46.158Z,13.95
2022-11-22T00:47:12.787Z,14.00
2022-11-22T00:49:39.525Z,12.57
2022-11-22T00:52:06.915Z,13.35
2022-11-22T00:54:33.592Z,14.05
2022-11-22T00:57:00.220Z,15.15
2022-11-22T00:59:27.181Z,12.80
2022-11-22T01:01:53.987Z,13.98
2022-11-22T01:04:20.676Z,14.25
2022-11-22T01:06:47.273Z,14.32
2022-11-22T01:09:19.220Z,14.48
2022-11-22T01:11:46.435Z,14.90
2022-11-22T01:14:13.149Z,13.43
2022-11-22T01:16:39.943Z,14.85
2022-11-22T01:19:06.928Z,15.40
2022-11-22T01:21:33.544Z,14.45
2022-11-22T01:24:00.745Z,14.07
2022-11-22T01:26:27.389Z,14.43
2022-11-22T01:28:53.992Z,14.02
2022-11-22T01:31:20.633Z,14.25
2022-11-22T01:33:47.287Z,14.68
2022-11-22T01:36:13.927Z,16.05
2022-11-22T01:38:40.504Z,13.68
2022-11-22T01:41:07.247Z,15.90
2022-11-22T01:43:33.839Z,14.48
2022-11-22T01:46:16.008Z,14.82
2022-11-22T01:49:23.043Z,13.25
2022-11-22T01:51:52.627Z,14.70
2022-11-22T01:54:24.532Z,14.05
2022-11-22T01:56:57.077Z,14.90
2022-11-22T01:59:29.737Z,14.77
2022-11-22T02:01:57.626Z,15.13
2022-11-22T02:04:28.154Z,14.15
2022-11-22T02:06:57.648Z,14.20
2022-11-22T02:09:24.545Z,14.63
2022-11-22T02:11:54.152Z,15.18
2022-11-22T02:14:27.297Z,16.40
2022-11-22T02:16:54.087Z,15.27
2022-11-22T02:19:53.686Z,15.40
2022-11-22T02:22:31.819Z,15.82
2022-11-22T02:25:21.030Z,14.85
2022-11-22T02:27:49.514Z,14.82
2022-11-22T02:30:17.231Z,15.38
2022-11-22T02:32:44.370Z,14.98
2022-11-22T02:35:17.023Z,15.10
2022-11-22T02:37:43.662Z,15.35
2022-11-22T02:40:15.045Z,14.43
2022-11-22T02:42:48.334Z,14.60
2022-11-22T02:45:15.111Z,15.98
2022-11-22T02:47:41.693Z,15.60
2022-11-22T02:50:08.657Z,16.42
2022-11-22T02:52:35.375Z,14.63
2022-11-22T02:55:02.217Z,16.27
2022-11-22T02:57:28.828Z,15.07
2022-11-22T02:59:55.467Z,15.40
2022-11-22T03:02:22.026Z,15.43
2022-11-22T03:04:48.638Z,16.25
2022-11-22T03:07:17.301Z,15.90
2022-11-22T03:09:43.979Z,16.77
2022-11-22T03:12:10.568Z,15.60
2022-11-22T03:14:37.203Z,16.60
2022-11-22T03:17:03.868Z,15.77
2022-11-22T03:19:30.658Z,16.08
2022-11-22T03:21:57.606Z,17.73
2022-11-22T03:24:24.178Z,16.50
2022-11-22T03:26:51.000Z,15.68
2022-11-22T03:29:18.239Z,15.98
2022-11-22T03:31:44.832Z,16.10
2022-11-22T03:34:12.522Z,16.02
2022-11-22T03:36:39.162Z,17.00
2022-11-22T03:39:05.752Z,16.13
2022-11-22T03:41:32.378Z,15.70
2022-11-22T03:43:59.040Z,16.35
2022-11-22T03:46:25.658Z,17.45
2022-11-22T03:48:52.218Z,16.45
2022-11-22T03:51:18.931Z,17.25
2022-11-22T03:53:45.774Z,17.05
2022-11-22T03:56:12.467Z,17.05
2022-11-22T03:58:39.157Z,16.85
2022-11-22T04:01:05.830Z,17.50
2022-11-22T04:03:32.454Z,17.10
2022-11-22T04:05:59.152Z,16.65
2022-11-22T04:08:25.859Z,17.35
2022-11-22T18:58:18.837Z,5.50
2022-11-22T19:00:46.259Z,6.22
2022-11-22T19:03:16.286Z,4.90
2022-11-22T19:05:46.791Z,5.65
2022-11-22T19:08:15.273Z,4.88
2022-11-22T19:10:43.999Z,6.70
2022-11-22T19:13:11.422Z,5.60
2022-11-22T19:15:38.040Z,5.97
2022-11-22T19:18:12.070Z,6.15
2022-11-22T19:20:54.625Z,6.70
2022-11-22T19:23:21.927Z,6.05
2022-11-22T19:25:48.590Z,5.45
2022-11-22T19:28:15.169Z,4.95
2022-11-22T19:30:45.390Z,5.18
2022-11-22T19:33:12.719Z,5.63
2022-11-22T19:35:39.299Z,4.82
2022-11-22T19:38:06.051Z,5.00
2022-11-22T19:40:33.470Z,5.60
2022-11-22T19:43:00.105Z,6.00
2022-11-22T19:45:26.728Z,5.32
2022-11-22T19:47:54.742Z,5.35
2022-11-22T19:50:21.326Z,5.28
2022-11-22T19:52:47.983Z,4.80
2022-11-22T19:55:14.628Z,4.95
2022-11-22T19:57:42.187Z,5.57
2022-11-22T20:00:10.278Z,5.47
2022-11-22T20:02:59.743Z,5.28
2022-11-22T20:05:26.620Z,5.38
2022-11-22T20:07:53.216Z,4.93
2022-11-22T20:10:19.882Z,4.65
2022-11-22T20:12:46.486Z,5.32
2022-11-22T20:15:13.040Z,5.38
2022-11-22T20:17:39.661Z,4.50
2022-11-22T20:20:07.197Z,5.68
2022-11-22T20:22:34.303Z,4.82
2022-11-22T20:25:01.804Z,5.00
2022-11-22T20:27:29.197Z,4.82
2022-11-22T20:29:55.787Z,4.85
2022-11-22T20:32:23.263Z,4.72
2022-11-22T20:34:49.890Z,5.50
2022-11-22T20:37:16.480Z,4.55
2022-11-22T20:39:43.162Z,4.53
2022-11-22T20:42:33.685Z,4.70
2022-11-22T20:44:59.121Z,4.50
2022-11-22T20:47:25.680Z,4.50
2022-11-22T20:49:52.330Z,4.30
2022-11-22T20:52:19.776Z,3.97
2022-11-22T20:54:46.321Z,4.50
2022-11-22T20:57:12.949Z,4.65
2022-11-22T20:59:43.264Z,5.30
2022-11-22T21:02:12.621Z,4.80
2022-11-22T21:04:39.288Z,5.15
2022-11-22T21:07:05.948Z,4.50
2022-11-22T21:09:32.627Z,4.82
2022-11-22T21:11:59.195Z,4.88
2022-11-22T21:14:27.636Z,4.90
2022-11-22T21:16:54.201Z,4.38
2022-11-22T21:19:20.831Z,5.45
2022-11-22T21:21:48.226Z,4.53
2022-11-22T21:24:14.930Z,4.57
2022-11-22T21:26:41.536Z,4.50
2022-11-22T21:29:16.465Z,5.20
2022-11-22T21:31:43.800Z,5.00
2022-11-22T21:34:10.673Z,3.63
2022-11-22T21:36:37.298Z,5.00
2022-11-22T21:39:03.996Z,5.13
2022-11-22T21:41:45.869Z,4.28
2022-11-22T21:44:13.711Z,4.80
2022-11-22T21:46:40.341Z,4.85
2022-11-22T21:49:07.685Z,5.22
2022-11-22T21:51:34.301Z,5.07
2022-11-22T21:54:02.099Z,5.50
2022-11-22T21:56:31.734Z,5.32
2022-11-22T21:58:59.791Z,5.63
2022-11-22T22:01:26.863Z,5.07
2022-11-22T22:03:53.668Z,5.80
2022-11-22T22:06:20.463Z,5.13
2022-11-22T22:08:47.099Z,5.40
2022-11-22T22:11:13.858Z,4.85
2022-11-22T22:13:41.704Z,5.13
2022-11-22T22:16:12.672Z,5.53
2022-11-22T22:18:39.222Z,5.70
2022-11-22T22:21:10.958Z,5.78
2022-11-22T22:23:39.950Z,5.20
2022-11-22T22:26:09.925Z,5.60
2022-11-22T22:28:49.856Z,5.78
2022-11-22T22:31:22.806Z,5.40
2022-11-22T22:33:59.011Z,5.93
2022-11-22T22:36:26.900Z,6.63
2022-11-22T22:38:54.616Z,7.20
2022-11-22T22:41:28.008Z,6.60
2022-11-22T22:43:54.711Z,6.15
2022-11-22T22:46:38.994Z,5.43
2022-11-22T22:49:14.253Z,6.68
2022-11-22T22:51:40.923Z,6.47
2022-11-22T22:54:09.485Z,5.72
2022-11-22T22:56:36.454Z,5.47
2022-11-22T22:59:05.261Z,5.25
2022-11-22T23:01:32.290Z,4.65
2022-11-22T23:04:01.010Z,4.40
2022-11-22T23:06:31.638Z,4.57
2022-11-22T23:08:59.023Z,4.45
2022-11-22T23:11:52.056Z,4.78
2022-11-22T23:14:27.195Z,4.20
2022-11-22T23:16:58.030Z,4.38
2022-11-22T23:19:25.927Z,4.07
2022-11-22T23:21:53.200Z,4.68
2022-11-22T23:24:19.985Z,4.03
2022-11-22T23:26:46.629Z,4.38
2022-11-22T23:29:13.418Z,4.70
2022-11-22T23:31:40.041Z,4.22
2022-11-22T23:34:06.858Z,4.10
2022-11-22T23:36:38.975Z,3.88
2022-11-22T23:39:07.608Z,4.07
2022-11-22T23:41:34.235Z,3.75
2022-11-22T23:44:03.626Z,3.40
2022-11-22T23:46:30.374Z,3.50
2022-11-22T23:48:59.566Z,3.60
2022-11-22T23:51:27.958Z,3.78
2022-11-22T23:54:03.590Z,3.80
2022-11-22T23:56:32.270Z,4.00
2022-11-22T23:58:59.733Z,3.92
